aviador You're here:

RODN Decoded Metar

KADENA in JAPAN
Report Time2017-05-26 10:56:00
UTC Time2017-05-26 11:16:06
Flight Rules vfr VFR
Wind360° at 05 kt
W.Decomp.*RWY 05: 3.5 kt HW 3.6 kt LCW
Visibility9999 m
Phenomena:N/A
Clouds:Scattered 130 Hf
Broken 150 Hf
Expected CloudBase > 800 ft AGL from Temp-Dew spread
Ceiling15,000 ft
Temp23°C (ISA +8)
Dew Point21°C (89% RH)
QNH1011 hPa
Density Alt1,509 ft
Elevation148 ft
Report Wrong Elevation
Raw Report
RODN 261056Z AUTO 36005KT 10SM SCT130 BKN150 23/21 A2985 RMK AO2
SLP114 T02310210 $=

Extra information for RODN:More info

Metar Taf Metar & Taf Last 4 Metars F.Rules Stats Wind Profile Meteogram Temp Stats Airport Information Weather charts Add Link Nearby VenuesMetar ALERT Operation Metar Decoded Social comments